• Join FlightAware (Why Join?)
  • Login
  • US Flag 
02:24AM EDT


 

Airport Tracker/Info


-or-


 

Live Flight TrackerFlight Track Log ✈ NJE16U ✈ 18-Jun-2013 ✈ KLAX - LIPZ / VCE

Flight Track Log - Related Links

Times and Time Zones

All times are in EDT time to prevent confusion due to time zone crossing. See the NJE16U flight status page for this flight to view local times or setup timezone preferences in your user account.

Time Position Orientation Groundspeed Altitude Reporting Facility
EDT Latitude Longitude Course Direction KTS MPH feet Rate Location/Type
05:25PM 33.9314 -118.4575 32° Northeast 196 226 2,600  Level Los Angeles Center
05:27PM 33.9119 -118.5225 250° West 207 238 5,400 2,280 Climbing Los Angeles Center
05:28PM 33.8519 -118.4994 162° South 270 311 7,400 1,980 Climbing Los Angeles Center
05:29PM 33.8928 -118.4261 56° Northeast 294 338 9,600 1,800 Climbing Los Angeles Center
05:30PM 33.9719 -118.3883 22° Northeast 338 389 11,200 1,740 Climbing Los Angeles Center
05:31PM 34.5384 -117.9542 32° Northeast  Level Estimated
05:31PM 34.0250 -118.2783 60° Northeast 373 429 13,200  Level Los Angeles Center
05:32PM 34.0853 -118.1708 56° Northeast 383 441 15,400 2,040 Climbing Los Angeles Center
05:33PM 34.1481 -118.0600 56° Northeast 396 456 17,500 1,980 Climbing Los Angeles Center
05:34PM 34.2119 -117.9447 56° Northeast 408 470 19,500 1,800 Climbing Los Angeles Center
05:35PM 34.2786 -117.8264 56° Northeast 424 488 21,300 1,920 Climbing Los Angeles Center
05:36PM 34.3617 -117.6767 56° Northeast 443 510 23,500 1,920 Climbing Los Angeles Center
05:37PM 34.4356 -117.5414 56° Northeast 456 525 25,400 1,440 Climbing Los Angeles Center
05:38PM 34.5092 -117.4075 56° Northeast 475 547 26,800 1,440 Climbing Los Angeles Center
05:39PM 34.5992 -117.2436 56° Northeast 489 563 28,800 1,680 Climbing Los Angeles Center
05:40PM 34.6756 -117.1022 57° Northeast 502 578 30,300 1,260 Climbing Los Angeles Center
05:41PM 34.7544 -116.9581 56° Northeast 513 590 31,500 1,440 Climbing Los Angeles Center
05:42PM 34.8494 -116.7814 57° Northeast 525 604 33,300 1,380 Climbing Los Angeles Center
05:43PM 34.9306 -116.6333 56° Northeast 527 606 34,400 1,200 Climbing Los Angeles Center
05:44PM 35.0225 -116.4972 50° Northeast 526 605 35,900 1,320 Climbing Los Angeles Center
05:45PM 35.1236 -116.3736 45° Northeast 518 596 37,200 1,140 Climbing Los Angeles Center
05:46PM 35.2244 -116.2486 45° Northeast 517 595 38,300 900 Climbing Los Angeles Center
05:47PM 35.3428 -116.0972 46° Northeast 515 593 39,100 660 Climbing Los Angeles Center
05:48PM 35.4450 -115.9689 46° Northeast 525 604 39,700 660 Climbing Los Angeles Center
05:49PM 35.5456 -115.8097 52° Northeast 528 608 40,500 600 Climbing Los Angeles Center
05:51PM 35.6228 -115.6519 59° Northeast 538 619 41,000 240 Climbing Los Angeles Center
05:52PM 35.6989 -115.4925 60° Northeast 543 625 41,000  Level Los Angeles Center
05:53PM 35.7750 -115.3328 60° Northeast 545 627 41,000  Level Los Angeles Center
05:54PM 35.8481 -115.1758 60° Northeast 530 610 41,000  Level Los Angeles Center
05:55PM 35.9389 -114.9831 60° Northeast 543 625 41,000  Level Los Angeles Center
05:56PM 36.0147 -114.8228 60° Northeast 544 626 41,000  Level Los Angeles Center
05:57PM 36.0908 -114.6622 60° Northeast 544 626 41,000  Level Los Angeles Center
05:58PM 36.1825 -114.4683 60° Northeast 546 628 41,000  Level Los Angeles Center
05:59PM 36.2583 -114.3053 60° Northeast 546 628 41,000  Level Los Angeles Center
06:00PM 36.3186 -114.1761 60° Northeast 545 627 41,000  Level Los Angeles Center
06:01PM 36.4228 -113.9475 60° Northeast 545 627 41,000  Level Los Angeles Center
06:02PM 36.4972 -113.7864 60° Northeast 543 625 41,000  Level Los Angeles Center
06:03PM 36.5656 -113.6256 62° Northeast 538 619 41,000  Level Los Angeles Center
06:04PM 36.6389 -113.4631 61° Northeast 539 620 41,000  Level Los Angeles Center
06:05PM 36.7278 -113.2667 61° Northeast 543 625 41,000  Level Los Angeles Center
06:06PM 36.8150 -113.0694 61° Northeast 545 627 41,000  Level Los Angeles Center
06:07PM 36.8883 -112.9056 61° Northeast 544 626 41,000  Level Los Angeles Center
06:08PM 36.9614 -112.7428 61° Northeast 543 625 41,000  Level Los Angeles Center
06:10PM 37.0331 -112.5797 61° Northeast 541 623 41,000  Level Los Angeles Center
06:11PM 37.1050 -112.4172 61° Northeast 540 621 41,000  Level Los Angeles Center
06:12PM 37.1917 -112.2197 61° Northeast 543 625 41,000  Level Los Angeles Center
06:13PM 37.2631 -112.0553 61° Northeast 543 625 41,000  Level Los Angeles Center
06:14PM 37.3342 -111.8925 61° Northeast 537 618 41,000  Level Los Angeles Center
06:15PM 37.4031 -111.7272 62° Northeast 536 617 41,000  Level Denver Center
06:16PM 37.4875 -111.5275 62° Northeast 540 621 41,000  Level Denver Center
06:17PM 37.5589 -111.3622 61° Northeast 540 621 41,000  Level Denver Center
06:18PM 37.6289 -111.1961 62° Northeast 539 620 41,000  Level Denver Center
06:19PM 37.6975 -111.0317 62° Northeast 533 613 41,000  Level Denver Center
06:20PM 37.7656 -110.8681 62° Northeast 528 608 41,000  Level Denver Center
06:21PM 37.8478 -110.6717 62° Northeast 529 609 41,000  Level Denver Center
06:22PM 37.9103 -110.5183 63° Northeast 534 615 41,000  Level Denver Center
06:23PM 37.9878 -110.3289 63° Northeast 541 623 41,000  Level Denver Center
06:24PM 38.0528 -110.1711 62° Northeast 540 621 41,000  Level Denver Center
06:25PM 38.1281 -109.9853 63° Northeast 531 611 41,000  Level Denver Center
06:26PM 38.1933 -109.8225 63° Northeast 539 620 41,000  Level Denver Center
06:27PM 38.2697 -109.6353 62° Northeast 533 613 41,000  Level Denver Center
06:28PM 38.3328 -109.4686 64° Northeast 542 624 41,000  Level Denver Center
06:29PM 38.4086 -109.2781 63° Northeast 543 625 41,000  Level Denver Center
06:30PM 38.4725 -109.1144 63° Northeast 540 621 41,000  Level Denver Center
06:31PM 38.5478 -108.9269 63° Northeast 533 613 41,000  Level Denver Center
06:32PM 38.6119 -108.7611 64° Northeast 545 627 41,000  Level Denver Center
06:33PM 38.6867 -108.5689 63° Northeast 543 625 41,000  Level Denver Center
06:34PM 38.7494 -108.4075 63° Northeast 534 615 41,000  Level Denver Center
06:35PM 38.8228 -108.2142 64° Northeast 542 624 41,000  Level Denver Center
06:36PM 38.8856 -108.0497 64° Northeast 539 620 41,000  Level Denver Center
06:37PM 38.9589 -107.8592 64° Northeast 537 618 41,000  Level Denver Center
06:39PM 39.0208 -107.6956 64° Northeast 533 613 41,000  Level Denver Center
06:40PM 39.0831 -107.5292 64° Northeast 541 623 41,000  Level Denver Center
06:41PM 39.1550 -107.3369 64° Northeast 536 617 41,000  Level Denver Center
06:42PM 39.2147 -107.1739 65° Northeast 530 610 41,000  Level Denver Center
06:43PM 39.2836 -106.9847 65° Northeast 525 604 41,000  Level Denver Center
06:44PM 39.3456 -106.8183 64° Northeast 532 612 41,000  Level Denver Center
06:45PM 39.4150 -106.6269 65° Northeast 528 608 41,000  Level Denver Center
06:46PM 39.4683 -106.4750 66° East 527 606 41,000  Level Denver Center
06:47PM 39.5439 -106.2683 65° Northeast 529 609 41,000  Level Denver Center
06:48PM 39.6019 -106.1075 65° Northeast 527 606 41,000  Level Denver Center
06:49PM 39.6628 -105.9356 65° Northeast 522 601 41,000  Level Denver Center
06:50PM 39.7236 -105.7619 65° Northeast 530 610 41,000  Level Denver Center
06:51PM 39.7947 -105.5611 65° Northeast 506 582 41,000  Level Denver Center
06:52PM 39.8525 -105.3931 66° East 507 583 41,000  Level Denver Center
06:53PM 39.9111 -105.2211 66° East 514 592 41,000  Level Denver Center
06:54PM 39.9692 -105.0525 66° East 509 586 41,000  Level Denver Center
06:55PM 40.0294 -104.8753 66° East 525 604 41,000  Level Denver Center
06:56PM 40.0767 -104.7347 66° East 526 605 41,000  Level Denver Center
06:57PM 40.1464 -104.5314 66° East 506 582 41,000  Level Denver Center
06:58PM 40.2164 -104.3175 67° East 517 595 41,000  Level Denver Center
06:59PM 40.2753 -104.1481 65° Northeast 510 587 41,000  Level Denver Center
07:00PM 40.3731 -104.0067 48° Northeast 512 589 41,000  Level Denver Center
07:01PM 40.4683 -103.8700 47° Northeast 501 577 41,000  Level Denver Center
07:02PM 40.5664 -103.7294 47° Northeast 518 596 41,000  Level Denver Center
07:03PM 40.6581 -103.5797 51° Northeast 525 604 41,000  Level Denver Center
07:04PM 40.7158 -103.3983 67° East 530 610 41,000  Level Denver Center
07:05PM 40.7842 -103.1819 67° East 533 613 41,000  Level Denver Center
07:06PM 40.8319 -102.9931 71° East 534 615 41,000  Level Denver Center
07:07PM 40.8306 -102.8078 91° East 530 610 41,000  Level Denver Center
07:08PM 40.8744 -102.6011 74° East 522 601 41,000  Level Denver Center
07:10PM 40.9303 -102.4336 66° East 519 597 41,000  Level Denver Center
07:11PM 40.9894 -102.2364 68° East 517 595 41,000  Level Denver Center
07:12PM 41.0422 -102.0661 68° East 519 597 41,000  Level Denver Center
07:13PM 41.0922 -101.8967 69° East 517 595 41,000  Level Denver Center
07:14PM 41.1522 -101.7006 68° East 514 592 41,000  Level Denver Center
07:15PM 41.2200 -101.4742 68° East 515 593 41,000  Level Denver Center
07:16PM 41.2697 -101.3033 69° East 516 594 41,000  Level Denver Center
07:17PM 41.3206 -101.1339 68° East 514 592 41,000  Level Denver Center
07:18PM 41.3778 -100.9356 69° East 512 589 41,000  Level Denver Center
07:19PM 41.4278 -100.7656 69° East 512 589 41,000  Level Denver Center
07:20PM 41.4833 -100.5681 69° East 507 583 41,000  Level Denver Center
07:21PM 41.5314 -100.4008 69° East 503 579 41,000  Level Denver Center
07:22PM 41.5875 -100.2056 69° East 503 579 41,000  Level Denver Center
07:23PM 41.6356 -100.0344 69° East 509 586 41,000  Level Denver Center
07:24PM 41.6825 -99.8642 70° East 510 587 41,000  Level Denver Center
07:25PM 41.7311 -99.6881 70° East 506 582 41,000  Level Denver Center
07:26PM 41.7897 -99.4742 70° East 507 583 41,000  Level Denver Center
07:27PM 41.8383 -99.2939 70° East 511 588 41,000  Level Denver Center
07:28PM 41.8875 -99.1161 70° East 507 583 41,000  Level Minneapolis Center
07:29PM 41.9361 -98.9344 70° East 512 589 41,000  Level Minneapolis Center
07:30PM 41.9853 -98.7536 70° East 514 592 41,000  Level Minneapolis Center
07:31PM 42.0322 -98.5731 71° East 512 589 41,000  Level Minneapolis Center
07:32PM 42.0794 -98.3942 70° East 508 585 41,000  Level Minneapolis Center
07:34PM 42.1350 -98.1806 71° East 504 580 41,000  Level Minneapolis Center
07:35PM 42.1803 -98.0025 71° East 501 577 41,000  Level Minneapolis Center
07:36PM 42.2300 -97.8125 70° East 504 580 41,000  Level Minneapolis Center
07:37PM 42.2756 -97.6344 71° East 503 579 41,000  Level Minneapolis Center
07:38PM 42.3200 -97.4550 71° East 504 580 41,000  Level Minneapolis Center
07:39PM 42.3644 -97.2756 71° East 503 579 41,000  Level Minneapolis Center
07:40PM 42.4103 -97.0958 71° East 504 580 41,000  Level Minneapolis Center
07:41PM 42.4539 -96.9161 72° East 503 579 41,000  Level Minneapolis Center
07:42PM 42.4978 -96.7342 72° East 504 580 41,000  Level Minneapolis Center
07:43PM 42.5517 -96.5161 71° East 507 583 41,000  Level Minneapolis Center
07:44PM 42.5950 -96.3356 72° East 504 580 41,000  Level Minneapolis Center
07:45PM 42.6478 -96.1169 72° East 505 581 41,000  Level Minneapolis Center
07:46PM 42.6992 -95.8953 72° East 510 587 41,000  Level Minneapolis Center
07:47PM 42.7433 -95.7064 72° East 513 590 41,000  Level Minneapolis Center
07:48PM 42.7872 -95.5225 72° East 514 592 41,000  Level Minneapolis Center
07:49PM 42.8364 -95.3058 73° East 506 582 41,000  Level Minneapolis Center
07:50PM 42.8781 -95.1225 73° East 507 583 41,000  Level Minneapolis Center
07:52PM 42.9192 -94.9369 73° East 512 589 41,000  Level Minneapolis Center
07:53PM 42.9628 -94.7489 72° East 520 598 41,000  Level Minneapolis Center
07:54PM 43.0083 -94.5408 73° East 527 606 41,000  Level Minneapolis Center
07:55PM 43.0553 -94.3319 73° East 521 600 41,000  Level Minneapolis Center
07:56PM 43.0919 -94.1653 73° East 521 600 41,000  Level Minneapolis Center
07:57PM 43.1317 -93.9769 74° East 520 598 41,000  Level Minneapolis Center
07:58PM 43.1806 -93.7517 73° East 520 598 41,000  Level Minneapolis Center
07:59PM 43.2208 -93.5639 74° East 517 595 41,000  Level Minneapolis Center
08:00PM 43.2606 -93.3778 74° East 514 592 41,000  Level Minneapolis Center
08:01PM 43.2989 -93.1897 74° East 515 593 41,000  Level Minneapolis Center
08:02PM 43.3464 -92.9625 74° East 519 597 41,000  Level Minneapolis Center
08:03PM 43.3844 -92.7742 74° East 515 593 41,000  Level Minneapolis Center
08:04PM 43.4231 -92.5869 74° East 514 592 41,000  Level Minneapolis Center
08:05PM 43.4611 -92.4003 74° East 511 588 41,000  Level Minneapolis Center
08:06PM 43.5067 -92.1756 74° East 510 587 41,000  Level Minneapolis Center
08:07PM 43.5508 -91.9503 75° East 512 589 41,000  Level Minneapolis Center
08:08PM 43.5864 -91.7664 75° East 501 577 41,000  Level Minneapolis Center
08:10PM 43.6222 -91.5850 75° East 495 570 41,000  Level Minneapolis Center
08:11PM 43.6644 -91.3633 75° East 498 573 41,000  Level Minneapolis Center
08:12PM 43.7008 -91.1778 75° East 501 577 41,000  Level Minneapolis Center
08:13PM 43.7428 -90.9517 76° East 508 585 41,000  Level Minneapolis Center
08:14PM 43.7761 -90.7678 76° East 501 577 41,000  Level Minneapolis Center
08:15PM 43.8103 -90.5878 75° East 489 563 41,000  Level Minneapolis Center
08:15PM 43.8292 -90.4778 77° East 492 566 41,000  Level Chicago Center
08:16PM 43.8667 -90.2683 76° East 502 578 41,000  Level Chicago Center
08:17PM 43.9008 -90.0800 76° East 503 579 41,000  Level Chicago Center
08:18PM 43.9361 -89.8886 76° East 509 586 41,000  Level Chicago Center
08:19PM 43.9681 -89.6953 77° East 512 589 41,000  Level Chicago Center
08:21PM 44.0011 -89.5047 76° East 508 585 41,000  Level Chicago Center
08:22PM 44.0336 -89.3125 77° East 508 585 41,000  Level Chicago Center
08:23PM 44.0719 -89.0875 77° East 511 588 41,000  Level Chicago Center
08:24PM 44.1050 -88.8925 77° East 513 590 41,000  Level Chicago Center
08:25PM 44.1372 -88.6961 77° East 515 593 41,000  Level Chicago Center
08:26PM 44.1678 -88.5053 77° East 505 581 41,000  Level Chicago Center
08:26PM 44.1883 -88.3769 77° East 504 580 41,000  Level Minneapolis Center
08:27PM 44.2192 -88.1822 77° East 511 588 41,000  Level Minneapolis Center
08:28PM 44.2500 -87.9881 77° East 510 587 41,000  Level Minneapolis Center
08:29PM 44.2847 -87.7597 78° East 513 590 41,000  Level Minneapolis Center
08:30PM 44.3150 -87.5647 78° East 514 592 41,000  Level Minneapolis Center
08:32PM 44.3453 -87.3681 78° East 516 594 41,000  Level Minneapolis Center
08:33PM 44.3753 -87.1658 78° East 521 600 41,000  Level Minneapolis Center
08:34PM 44.4050 -86.9678 78° East 522 601 41,000  Level Minneapolis Center
08:35PM 44.4347 -86.7697 78° East 524 603 41,000  Level Minneapolis Center
08:36PM 44.4636 -86.5714 78° East 523 602 41,000  Level Minneapolis Center
08:37PM 44.4972 -86.3347 79° East 523 602 41,000  Level Minneapolis Center
08:38PM 44.5250 -86.1383 79° East 522 601 41,000  Level Minneapolis Center
08:39PM 44.5511 -85.9425 79° East 521 600 41,000  Level Minneapolis Center
08:40PM 44.5797 -85.7450 78° East 526 605 41,000  Level Minneapolis Center
08:41PM 44.6117 -85.5056 79° East 527 606 41,000  Level Minneapolis Center
08:42PM 44.6372 -85.3067 80° East 525 604 41,000  Level Minneapolis Center
08:43PM 44.6589 -85.1467 79° East 523 602 41,000  Level Minneapolis Center
08:44PM 44.6897 -84.9072 80° East 523 602 41,000  Level Minneapolis Center
08:45PM 44.7158 -84.7067 80° East 524 603 41,000  Level Minneapolis Center
08:46PM 44.7467 -84.4647 80° East 526 605 41,000  Level Minneapolis Center
08:47PM 44.7714 -84.2642 80° East 524 603 41,000  Level Minneapolis Center
08:48PM 44.7956 -84.0647 80° East 520 598 41,000  Level Minneapolis Center
08:49PM 44.8200 -83.8619 80° East 525 604 41,000  Level Minneapolis Center
08:50PM 44.8436 -83.6594 81° East 526 605 41,000  Level Minneapolis Center
08:51PM 44.8694 -83.4575 80° East 527 606 41,000  Level Minneapolis Center
08:52PM 44.8958 -83.2119 81° East 528 608 41,000  Level Minneapolis Center
08:53PM 44.9194 -83.0072 81° East 530 610 41,000  Level Minneapolis Center
08:54PM 44.9414 -82.8031 81° East 530 610 41,000  Level Minneapolis Center
08:55PM 44.9625 -82.5989 82° East 527 606 41,000  Level Minneapolis Center
08:56PM 44.9667 -82.3500 89° East 530 610 41,000  Level Toronto Center
08:57PM 44.9833 -82.1500 83° East 520 598 41,000  Level Toronto Center
08:58PM 45.0167 -81.9500 77° East 530 610 41,000  Level Toronto Center
08:59PM 45.0333 -81.7333 84° East 530 610 41,000  Level Toronto Center
09:00PM 45.0500 -81.5167 84° East 530 610 41,000  Level Toronto Center
09:01PM 45.0667 -81.3333 83° East 520 598 41,000  Level Toronto Center
09:02PM 45.0833 -81.1167 84° East 520 598 41,000  Level Toronto Center
09:03PM 45.1000 -80.9000 84° East 530 610 41,000  Level Toronto Center
09:04PM 45.1333 -80.7167 75° East 530 610 41,000  Level Toronto Center
09:05PM 45.1500 -80.5000 84° East 530 610 41,000  Level Toronto Center
09:06PM 45.1667 -80.3000 83° East 530 610 41,000  Level Toronto Center
09:07PM 45.1833 -80.1000 83° East 530 610 41,000  Level Toronto Center
09:08PM 45.2000 -79.8667 84° East 530 610 41,000  Level Toronto Center
09:09PM 45.2167 -79.6833 83° East 530 610 41,000  Level Toronto Center
09:10PM 45.2333 -79.4667 84° East 530 610 41,000  Level Toronto Center
09:11PM 45.2500 -79.2500 84° East 530 610 41,000  Level Toronto Center
09:12PM 45.2667 -79.0333 84° East 530 610 41,000  Level Toronto Center
09:13PM 45.2833 -78.8500 83° East 530 610 41,000  Level Toronto Center
09:14PM 45.3000 -78.6167 84° East 540 621 41,000  Level Toronto Center
09:15PM 45.3167 -78.4167 83° East 540 621 41,000  Level Toronto Center
09:16PM 45.3500 -78.2333 75° East 530 610 41,000  Level Toronto Center
09:17PM 45.4167 -78.0167 66° East 530 610 41,000  Level Toronto Center
09:18PM 45.4667 -77.8333 69° East 530 610 41,000  Level Toronto Center
09:19PM 45.5167 -77.6333 70° East 530 610 41,000  Level Toronto Center
09:20PM 45.5833 -77.4167 66° East 540 621 41,000  Level Toronto Center
09:21PM 45.6167 -77.2167 77° East 530 610 41,000  Level Toronto Center
09:22PM 45.6833 -77.0000 66° East 540 621 41,000  Level Toronto Center
09:23PM 45.7333 -76.8167 69° East 540 621 41,000  Level Toronto Center
09:24PM 45.7833 -76.6167 70° East 540 621 41,000  Level Toronto Center
09:25PM 45.8167 -76.4333 75° East 540 621 41,000  Level Toronto Center
09:26PM 45.8833 -76.2333 64° Northeast 540 621 41,000  Level Toronto Center
09:27PM 45.9167 -76.0167 77° East 540 621 41,000  Level Toronto Center
09:28PM 45.9667 -75.8167 70° East 540 621 41,000  Level Toronto Center
09:29PM 46.0333 -75.6000 66° East 530 610 41,000  Level Toronto Center
09:30PM 46.0667 -75.4000 76° East 530 610 41,000  Level Toronto Center
09:31PM 46.1167 -75.2000 70° East 540 621 41,000  Level Toronto Center
09:32PM 46.1667 -74.9833 72° East 540 621 41,000  Level Toronto Center
09:33PM 46.2167 -74.7833 70° East 540 621 41,000  Level Toronto Center
09:34PM 46.2667 -74.5667 71° East 540 621 41,000  Level Toronto Center
09:35PM 46.3167 -74.3667 70° East 540 621 41,000  Level Toronto Center
09:36PM 46.3500 -74.1500 77° East 540 621 41,000  Level Toronto Center
09:37PM 46.4000 -73.9667 68° East 540 621 41,000  Level Toronto Center
09:38PM 46.4500 -73.8167 64° Northeast 550 633 41,000  Level Moncton Center
09:39PM 46.4833 -73.6000 77° East 550 633 41,000  Level Moncton Center
09:40PM 46.5333 -73.3833 71° East 550 633 41,000  Level Moncton Center
09:41PM 46.5833 -73.1833 70° East 550 633 41,000  Level Moncton Center
09:42PM 46.6167 -72.9667 77° East 550 633 41,000  Level Moncton Center
09:43PM 46.6667 -72.7500 71° East 550 633 41,000  Level Moncton Center
09:44PM 46.7167 -72.5333 71° East 540 621 41,000  Level Moncton Center
09:45PM 46.7667 -72.3500 68° East 540 621 41,000  Level Moncton Center
09:47PM 46.8333 -72.0000 74° East 550 633 41,000  Level Montreal Center
09:48PM 46.8667 -71.8000 76° East 540 621 41,000  Level Montreal Center
09:49PM 46.9167 -71.5667 73° East 550 633 41,000  Level Montreal Center
09:50PM 46.9500 -71.3500 77° East 550 633 41,000  Level Montreal Center
09:51PM 47.0000 -71.1500 70° East 550 633 41,000  Level Montreal Center
09:52PM 47.0333 -70.9167 78° East 550 633 41,000  Level Montreal Center
09:53PM 47.0833 -70.7167 70° East 550 633 41,000  Level Montreal Center
09:54PM 47.1167 -70.4833 78° East 550 633 41,000  Level Montreal Center
09:55PM 47.1500 -70.2667 77° East 540 621 41,000  Level Montreal Center
09:56PM 47.1833 -70.0333 78° East 540 621 41,000  Level Montreal Center
09:57PM 47.2333 -69.8333 70° East 540 621 41,000  Level Montreal Center
09:58PM 47.2833 -69.6000 72° East 540 621 41,000  Level Montreal Center
09:59PM 47.3000 -69.4000 83° East 540 621 41,000  Level Montreal Center
09:59PM 47.3333 -69.3167 59° Northeast 550 633 41,000  Level Moncton Center
10:00PM 47.3667 -69.1000 77° East 550 633 41,000  Level Moncton Center
10:01PM 47.4167 -68.8833 71° East 550 633 41,000  Level Moncton Center
10:02PM 47.4333 -68.6500 84° East 560 644 41,000  Level Moncton Center
10:03PM 47.4833 -68.4333 71° East 560 644 41,000  Level Moncton Center
10:04PM 47.5167 -68.2167 77° East 550 633 41,000  Level Moncton Center
10:05PM 47.5667 -67.9667 73° East 560 644 41,000  Level Moncton Center
10:06PM 47.5833 -67.7667 83° East 550 633 41,000  Level Moncton Center
10:07PM 47.6167 -67.5333 78° East 550 633 41,000  Level Moncton Center
10:08PM 47.6667 -67.3333 70° East 560 644 41,000  Level Moncton Center
10:09PM 47.6833 -67.1000 84° East 550 633 41,000  Level Moncton Center
10:10PM 47.7167 -66.8667 78° East 550 633 41,000  Level Moncton Center
10:11PM 47.7667 -66.6667 70° East 550 633 41,000  Level Moncton Center
10:12PM 47.8000 -66.4167 79° East 560 644 41,000  Level Moncton Center
10:13PM 47.8167 -66.2000 83° East 550 633 41,000  Level Moncton Center
10:14PM 47.8500 -65.9667 78° East 550 633 41,000  Level Moncton Center
10:15PM 47.9000 -65.7500 71° East 550 633 41,000  Level Moncton Center
10:16PM 47.9333 -65.5167 78° East 550 633 41,000  Level Moncton Center
10:17PM 47.9500 -65.3000 83° East 550 633 41,000  Level Moncton Center
10:18PM 47.9833 -65.1000 76° East 550 633 41,000  Level Moncton Center
10:19PM 48.0167 -64.8500 79° East 550 633 41,000  Level Moncton Center
10:20PM 48.0333 -64.6167 84° East 550 633 41,000  Level Moncton Center
10:21PM 48.0667 -64.4000 77° East 550 633 41,000  Level Moncton Center
10:22PM 48.1000 -64.2000 76° East 550 633 41,000  Level Moncton Center
10:23PM 48.1167 -63.9500 84° East 550 633 41,000  Level Moncton Center
10:24PM 48.1500 -63.7167 78° East 550 633 41,000  Level Moncton Center
10:25PM 48.1833 -63.5167 76° East 550 633 41,000  Level Moncton Center
10:26PM 48.2167 -63.2667 79° East 550 633 41,000  Level Moncton Center
10:27PM 48.2333 -63.0667 83° East 550 633 41,000  Level Moncton Center
10:28PM 48.2500 -62.8667 83° East 550 633 41,000  Level Gander Center
10:29PM 48.2833 -62.6167 79° East 560 644 41,000  Level Gander Center
10:30PM 48.3167 -62.4167 76° East 550 633 41,000  Level Gander Center
10:31PM 48.3333 -62.1833 84° East 550 633 41,000  Level Gander Center
10:32PM 48.3500 -61.9333 84° East 550 633 41,000  Level Gander Center
10:33PM 48.3833 -61.7167 77° East 550 633 41,000  Level Gander Center
10:34PM 48.4000 -61.4833 84° East 550 633 41,000  Level Gander Center
10:35PM 48.4333 -61.2500 78° East 550 633 41,000  Level Gander Center
10:36PM 48.4500 -61.0333 83° East 550 633 41,000  Level Gander Center
10:37PM 48.4667 -60.8000 84° East 550 633 41,000  Level Gander Center
10:38PM 48.5000 -60.5500 79° East 550 633 41,000  Level Gander Center
10:39PM 48.5167 -60.3500 83° East 550 633 41,000  Level Gander Center
10:40PM 48.5333 -60.1167 84° East 550 633 41,000  Level Gander Center
10:41PM 48.5500 -59.8667 84° East 550 633 41,000  Level Gander Center
10:42PM 48.5667 -59.6667 83° East 550 633 41,000  Level Gander Center
10:43PM 48.5833 -59.4167 84° East 550 633 41,000 180 Level Gander Center
10:44PM 48.6167 -59.1833 78° East 550 633 41,400 600 Climbing Gander Center
10:45PM 48.6333 -58.9833 83° East 550 633 42,300 900 Climbing Gander Center
10:46PM 48.6333 -58.7500 90° East 540 621 43,300 3,300 Climbing Gander Center
10:47PM 48.6500 -58.5167 84° East 540 621 49,000 840 Climbing Gander Center
10:48PM 48.6833 -58.3000 77° East 530 610 45,000 -2,040 Descending Gander Center
10:49PM 48.7167 -58.0667 78° East 530 610 45,000  Level Gander Center
10:50PM 48.7667 -57.8667 69° East 530 610 45,000  Level Gander Center
10:51PM 48.8000 -57.6500 77° East 530 610 45,000  Level Gander Center
10:52PM 48.8500 -57.4167 72° East 530 610 45,000  Level Gander Center
10:53PM 48.8833 -57.2167 76° East 530 610 45,000  Level Gander Center
10:54PM 48.9333 -56.9833 72° East 530 610 45,000  Level Gander Center
10:55PM 48.9667 -56.7667 77° East 540 621 45,000  Level Gander Center
10:56PM 49.0000 -56.5333 78° East 540 621 45,000  Level Gander Center
10:57PM 49.0500 -56.3333 69° East 540 621 45,000  Level Gander Center
10:58PM 49.0833 -56.1167 77° East 530 610 45,000  Level Gander Center
10:59PM 49.1167 -55.9167 76° East 520 598 45,000  Level Gander Center
11:00PM 49.1667 -55.6833 72° East 530 610 45,000  Level Gander Center
11:01PM 49.2000 -55.4667 77° East 530 610 45,000  Level Gander Center
11:02PM 49.2333 -55.2667 76° East 540 621 45,000  Level Gander Center
11:03PM 49.2833 -55.0333 72° East 530 610 45,000  Level Gander Center
11:04PM 49.3000 -54.8167 83° East 520 598 45,000  Level Gander Center
11:05PM 49.3333 -54.5833 78° East 530 610 45,000  Level Gander Center
11:06PM 49.3833 -54.3667 70° East 530 610 45,000  Level Gander Center
11:07PM 49.4167 -54.1500 77° East 530 610 45,000  Level Gander Center
11:08PM 49.4500 -53.9167 78° East 530 610 45,000  Level Gander Center
11:09PM 49.4833 -53.7167 76° East 530 610 45,000  Level Gander Center
11:10PM 49.5000 -53.5000 83° East 530 610 45,000  Level Gander Center
11:11PM 49.5333 -53.2667 78° East 530 610 45,000  Level Gander Center
11:12PM 49.5667 -53.0500 77° East 530 610 45,000  Level Gander Center
11:13PM 49.6000 -52.8167 77° East 530 610 45,000  Level Gander Center
11:14PM 49.6333 -52.6000 77° East 530 610 45,000  Level Gander Center
11:15PM 49.6667 -52.3833 77° East 530 610 45,000  Level Gander Center
11:16PM 49.7000 -52.1500 77° East 530 610 45,000  Level Gander Center
11:17PM 49.7333 -51.9333 77° East 530 610 45,000  Level Gander Center
11:18PM 49.7667 -51.7167 77° East 530 610 45,000  Level Gander Center
11:19PM 49.8000 -51.4667 78° East 540 621 45,000  Level Gander Center
11:20PM 49.8333 -51.2500 77° East 540 621 45,000  Level Gander Center
11:21PM 49.8500 -51.0167 84° East 540 621 45,000  Level Gander Center
11:22PM 49.8833 -50.8000 76° East 540 621 45,000  Level Gander Center
11:23PM 49.9000 -50.5833 83° East 540 621 45,000  Level Gander Center
11:24PM 49.9333 -50.3500 77° East 540 621 45,000  Level Gander Center
11:25PM 49.9667 -50.1000 78° East 540 621 45,000  Level Gander Center
11:26PM 49.9833 -49.8833 83° East 530 610 45,000  Level Gander Center
11:27PM 50.0167 -49.6667 76° East 540 621 45,000  Level Gander Center
11:28PM 50.0000 -50.0000 77° East 526 605 45,000  Level ETMS Enhanced Traffic Management System
11:28PM 50.0500 -49.4333 77° East 540 621 45,000  Level Gander Center
11:28PM 50.0500 -49.4333 77° East 540 621 45,000  Level Gander Center
11:29PM 50.0833 -49.2333 75° East 530 610 45,000  Level Gander Center
11:30PM 50.1167 -48.9833 78° East 530 610 45,000  Level Gander Center
11:31PM 50.1500 -48.7667 76° East 530 610 45,000  Level Gander Center
11:32PM 50.1667 -48.5500 83° East 530 610 45,000  Level Gander Center
11:33PM 50.2167 -48.3000 73° East 530 610 45,000  Level Gander Center
11:34PM 50.2333 -48.0667 84° East 530 610 45,000  Level Gander Center
11:35PM 50.2667 -47.8667 75° East 540 621 45,000  Level Gander Center
11:37PM 50.3030 -47.5785 79° East  Level FlightAware Approximate
11:44PM 50.4819 -46.0585 79° East  Level FlightAware Approximate
11:45PM 50.5059 -45.8404 80° East  Level FlightAware Approximate
11:46PM 50.5294 -45.6222 80° East  Level FlightAware Approximate
11:47PM 50.5526 -45.4037 80° East  Level FlightAware Approximate
11:48PM 50.5753 -45.1850 81° East  Level FlightAware Approximate
11:49PM 50.5976 -44.9661 81° East  Level FlightAware Approximate
11:50PM 50.6195 -44.7469 81° East  Level FlightAware Approximate
11:51PM 50.6410 -44.5276 81° East  Level FlightAware Approximate
11:52PM 50.6620 -44.3081 81° East  Level FlightAware Approximate
11:53PM 50.6827 -44.0884 81° East  Level FlightAware Approximate
11:54PM 50.7030 -43.8685 82° East  Level FlightAware Approximate
11:55PM 50.7228 -43.6484 82° East  Level FlightAware Approximate
11:56PM 50.7422 -43.4281 82° East  Level FlightAware Approximate
11:57PM 50.7612 -43.2076 82° East  Level FlightAware Approximate
11:58PM 50.7798 -42.9870 82° East  Level FlightAware Approximate
11:59PM 50.7980 -42.7662 82° East  Level FlightAware Approximate
12:00AM 50.8157 -42.5452 83° East  Level FlightAware Approximate
12:01AM 50.8339 -42.3243 82° East  Level FlightAware Approximate
12:02AM 50.8518 -42.1032 83° East  Level FlightAware Approximate
12:03AM 50.8692 -41.8819 83° East  Level FlightAware Approximate
12:04AM 50.8862 -41.6604 83° East  Level FlightAware Approximate
12:05AM 50.9028 -41.4388 83° East  Level FlightAware Approximate
12:06AM 50.9189 -41.2170 83° East  Level FlightAware Approximate
12:07AM 50.9347 -40.9951 83° East  Level FlightAware Approximate
12:08AM 50.9500 -40.7730 84° East  Level FlightAware Approximate
12:09AM 50.9649 -40.5508 84° East  Level FlightAware Approximate
12:10AM 50.9794 -40.3284 84° East  Level FlightAware Approximate
12:11AM 50.9935 -40.1059 84° East  Level FlightAware Approximate
12:12AM 51.0163 -39.8856 77° East  Level FlightAware Approximate
12:13AM 51.0472 -39.6672 77° East  Level FlightAware Approximate
12:13AM 51.0000 -40.0000 77° East 515 593 45,000  Level ETMS Enhanced Traffic Management System
12:14AM 51.0776 -39.4486 77° East  Level FlightAware Approximate
12:15AM 51.1076 -39.2296 78° East  Level FlightAware Approximate
12:16AM 51.1372 -39.0103 78° East  Level FlightAware Approximate
12:17AM 51.1664 -38.7908 78° East  Level FlightAware Approximate
12:18AM 51.1952 -38.5709 78° East  Level FlightAware Approximate
12:19AM 51.2732 -37.9930 79° East 515 593 45,000  Level FlightAware Transoceanic
12:20AM 51.3014 -37.7686 79° East 515 593 45,000  Level FlightAware Transoceanic
12:21AM 51.3292 -37.5438 79° East 515 593 45,000  Level FlightAware Transoceanic
12:22AM 51.3566 -37.3189 79° East 515 593 45,000  Level FlightAware Transoceanic
12:23AM 51.3835 -37.0936 79° East 515 593 45,000  Level FlightAware Transoceanic
12:24AM 51.4100 -36.8681 79° East 515 593 45,000  Level FlightAware Transoceanic
12:25AM 51.4361 -36.6423 80° East 515 593 45,000  Level FlightAware Transoceanic
12:26AM 51.4617 -36.4163 80° East 515 593 45,000  Level FlightAware Transoceanic
12:27AM 51.4869 -36.1900 80° East 515 593 45,000  Level FlightAware Transoceanic
12:28AM 51.5117 -35.9635 80° East 515 593 45,000  Level FlightAware Transoceanic
12:29AM 51.5360 -35.7367 80° East 515 593 45,000  Level FlightAware Transoceanic
12:30AM 51.5599 -35.5097 80° East 515 593 45,000  Level FlightAware Transoceanic
12:31AM 51.5834 -35.2825 81° East 515 593 45,000  Level FlightAware Transoceanic
12:32AM 51.6064 -35.0550 81° East 515 593 45,000  Level FlightAware Transoceanic
12:33AM 51.6289 -34.8273 81° East 515 593 45,000  Level FlightAware Transoceanic
12:34AM 51.6511 -34.5994 81° East 515 593 45,000  Level FlightAware Transoceanic
12:35AM 51.6727 -34.3712 81° East 515 593 45,000  Level FlightAware Transoceanic
12:36AM 51.6940 -34.1428 82° East 515 593 45,000  Level FlightAware Transoceanic
12:37AM 51.7148 -33.9142 82° East 515 593 45,000  Level FlightAware Transoceanic
12:38AM 51.7352 -33.6855 82° East 515 593 45,000  Level FlightAware Transoceanic
12:39AM 51.7551 -33.4565 82° East 515 593 45,000  Level FlightAware Transoceanic
12:40AM 51.7746 -33.2273 82° East 515 593 45,000  Level FlightAware Transoceanic
12:41AM 51.7936 -32.9979 82° East 515 593 45,000  Level FlightAware Transoceanic
12:42AM 51.8121 -32.7683 83° East 515 593 45,000  Level FlightAware Transoceanic
12:43AM 51.8303 -32.5385 83° East 515 593 45,000  Level FlightAware Transoceanic
12:44AM 51.8480 -32.3086 83° East 515 593 45,000  Level FlightAware Transoceanic
12:45AM 51.8652 -32.0785 83° East 515 593 45,000  Level FlightAware Transoceanic
12:46AM 51.8820 -31.8482 83° East 515 593 45,000  Level FlightAware Transoceanic
12:47AM 51.8983 -31.6177 84° East 515 593 45,000  Level FlightAware Transoceanic
12:48AM 51.9142 -31.3871 84° East 515 593 45,000  Level FlightAware Transoceanic
12:49AM 51.9296 -31.1562 84° East 515 593 45,000  Level FlightAware Transoceanic
12:50AM 51.9446 -30.9253 84° East 515 593 45,000  Level FlightAware Transoceanic
12:51AM 51.9591 -30.6942 84° East 515 593 45,000  Level FlightAware Transoceanic
12:52AM 51.9732 -30.4629 84° East 515 593 45,000  Level FlightAware Transoceanic
12:53AM 51.9868 -30.2315 85° East 515 593 45,000  Level FlightAware Transoceanic
12:54AM 51.9998 -30.0039 85° East  Level FlightAware Approximate
12:55AM 52.0124 -29.7761 85° East  Level FlightAware Approximate
12:56AM 52.0082 -29.7795 86° East  Level FlightAware Approximate
12:57AM 52.0163 -29.5512 87° East  Level FlightAware Approximate
12:57AM 52.0000 -30.0000 86° East 527 606 45,000  Level ETMS Enhanced Traffic Management System
12:58AM 52.0239 -29.3228 87° East  Level FlightAware Approximate
12:59AM 52.0311 -29.0943 87° East  Level FlightAware Approximate
01:00AM 52.0378 -28.8657 87° East  Level FlightAware Approximate
01:01AM 52.0441 -28.6371 87° East  Level FlightAware Approximate
01:02AM 52.0499 -28.4084 88° East  Level FlightAware Approximate
01:03AM 52.0713 -27.8602 88° East 527 606 45,000  Level FlightAware Transoceanic
01:04AM 52.0768 -27.6220 88° East 527 606 45,000  Level FlightAware Transoceanic
01:05AM 52.0819 -27.3839 88° East 527 606 45,000  Level FlightAware Transoceanic
01:06AM 52.0864 -27.1456 88° East 527 606 45,000  Level FlightAware Transoceanic
01:07AM 52.0905 -26.9073 88° East 527 606 45,000  Level FlightAware Transoceanic
01:08AM 52.0941 -26.6690 89° East 527 606 45,000  Level FlightAware Transoceanic
01:09AM 52.0973 -26.4307 89° East 527 606 45,000  Level FlightAware Transoceanic
01:10AM 52.0999 -26.1922 89° East 527 606 45,000  Level FlightAware Transoceanic
01:11AM 52.1021 -25.9538 89° East 527 606 45,000  Level FlightAware Transoceanic
01:12AM 52.1038 -25.7154 89° East 527 606 45,000  Level FlightAware Transoceanic
01:13AM 52.1050 -25.4769 90° East 527 606 45,000  Level FlightAware Transoceanic
01:14AM 52.1057 -25.2385 90° East 527 606 45,000  Level FlightAware Transoceanic
01:15AM 52.1059 -25.0000 90° East 527 606 45,000  Level FlightAware Transoceanic
01:16AM 52.1057 -24.7615 90° East 527 606 45,000  Level FlightAware Transoceanic
01:17AM 52.1050 -24.5231 90° East 527 606 45,000  Level FlightAware Transoceanic
01:18AM 52.1038 -24.2846 91° East 527 606 45,000  Level FlightAware Transoceanic
01:19AM 52.1021 -24.0462 91° East 527 606 45,000  Level FlightAware Transoceanic
01:20AM 52.0999 -23.8078 91° East 527 606 45,000  Level FlightAware Transoceanic
01:21AM 52.0973 -23.5693 91° East 527 606 45,000  Level FlightAware Transoceanic
01:22AM 52.0941 -23.3310 91° East 527 606 45,000  Level FlightAware Transoceanic
01:23AM 52.0905 -23.0927 92° East 527 606 45,000  Level FlightAware Transoceanic
01:24AM 52.0864 -22.8544 92° East 527 606 45,000  Level FlightAware Transoceanic
01:25AM 52.0819 -22.6161 92° East 527 606 45,000  Level FlightAware Transoceanic
01:26AM 52.0768 -22.3780 92° East 527 606 45,000  Level FlightAware Transoceanic
01:27AM 52.0713 -22.1398 92° East 527 606 45,000  Level FlightAware Transoceanic
01:28AM 52.0653 -21.9017 92° East 527 606 45,000  Level FlightAware Transoceanic
01:29AM 52.0588 -21.6637 93° East 527 606 45,000  Level FlightAware Transoceanic
01:30AM 52.0518 -21.4258 93° East 527 606 45,000  Level FlightAware Transoceanic
01:31AM 52.0444 -21.1880 93° East 527 606 45,000  Level FlightAware Transoceanic
01:32AM 52.0365 -20.9502 93° East 527 606 45,000  Level FlightAware Transoceanic
01:33AM 52.0281 -20.7125 93° East 527 606 45,000  Level FlightAware Transoceanic
01:34AM 52.0192 -20.4749 94° East 527 606 45,000  Level FlightAware Transoceanic
01:35AM 52.0098 -20.2374 94° East 527 606 45,000  Level FlightAware Transoceanic
01:36AM 52.0004 -20.0092 94° East  Level FlightAware Approximate
01:37AM 51.9906 -19.7812 94° East  Level FlightAware Approximate
01:38AM 52.0078 -19.7902 86° East  Level FlightAware Approximate
01:39AM 52.0158 -19.5619 87° East  Level FlightAware Approximate
01:40AM 52.0234 -19.3335 87° East  Level FlightAware Approximate
01:41AM 52.0305 -19.1050 87° East  Level FlightAware Approximate
01:42AM 52.0372 -18.8764 87° East  Level FlightAware Approximate
01:43AM 52.0435 -18.6478 87° East  Level FlightAware Approximate
01:44AM 52.0493 -18.4191 88° East  Level FlightAware Approximate
01:45AM 52.0546 -18.1903 88° East  Level FlightAware Approximate
01:46AM 52.0596 -17.9615 88° East  Level FlightAware Approximate
01:47AM 52.0640 -17.7327 88° East  Level FlightAware Approximate
01:48AM 52.0681 -17.5038 88° East  Level FlightAware Approximate
01:49AM 52.0717 -17.2749 88° East  Level FlightAware Approximate
01:50AM 52.0748 -17.0459 89° East  Level FlightAware Approximate
01:51AM 52.0775 -16.8169 89° East  Level FlightAware Approximate
01:52AM 52.0798 -16.5879 89° East  Level FlightAware Approximate
01:53AM 52.0816 -16.3588 89° East  Level FlightAware Approximate
01:54AM 52.0830 -16.1298 89° East  Level FlightAware Approximate
01:55AM 52.0840 -15.9007 90° East  Level FlightAware Approximate
01:56AM 52.0844 -15.6716 90° East  Level FlightAware Approximate
01:57AM 52.0845 -15.4425 90° East  Level FlightAware Approximate
01:58AM 52.0841 -15.2135 90° East  Level FlightAware Approximate
01:59AM 52.0833 -14.9844 90° East  Level FlightAware Approximate
02:00AM 52.0827 -14.7553 90° East  Level FlightAware Approximate
02:01AM 52.0816 -14.5263 90° East  Level FlightAware Approximate
02:02AM 52.0801 -14.2972 91° East  Level FlightAware Approximate
02:03AM 52.0781 -14.0682 91° East  Level FlightAware Approximate
02:04AM 52.0757 -13.8392 91° East  Level FlightAware Approximate
02:05AM 52.0728 -13.6102 91° East  Level FlightAware Approximate
02:06AM 52.0695 -13.3812 91° East  Level FlightAware Approximate
02:07AM 52.0658 -13.1523 91° East  Level FlightAware Approximate
02:08AM 52.0616 -12.9235 92° East  Level FlightAware Approximate
02:09AM 52.0570 -12.6946 92° East  Level FlightAware Approximate
02:10AM 52.0519 -12.4658 92° East  Level FlightAware Approximate
02:11AM 52.0464 -12.2371 92° East  Level FlightAware Approximate
02:12AM 52.0404 -12.0085 92° East  Level FlightAware Approximate
02:13AM 52.0340 -11.7799 93° East  Level FlightAware Approximate
02:14AM 52.0272 -11.5513 93° East  Level FlightAware Approximate
02:15AM 52.0199 -11.3229 93° East  Level FlightAware Approximate
02:16AM 52.0122 -11.0945 93° East  Level FlightAware Approximate
02:17AM 52.0040 -10.8662 93° East  Level FlightAware Approximate
02:18AM 51.9954 -10.6379 93° East  Level FlightAware Approximate
02:19AM 51.9863 -10.4098 94° East  Level FlightAware Approximate
02:20AM 51.9768 -10.1818 94° East  Level FlightAware Approximate
02:21AM 51.9669 -9.9538 94° East  Level FlightAware Approximate
02:22AM 51.9566 -9.7260 94° East  Level FlightAware Approximate
02:23AM 51.9457 -9.4983 94° East  Level FlightAware Approximate
02:24AM 51.9345 -9.2707 94° East  Level FlightAware Approximate
02:25AM 51.9228 -9.0432 95° East  Level FlightAware Approximate
02:26AM 51.9107 -8.8158 95° East  Level FlightAware Approximate
02:27AM 51.8981 -8.5885 95° East  Level FlightAware Approximate
02:27AM 51.8878 -8.5454 95° East 476 548 45,000  Level FlightAware UK
02:28AM 51.8828 -8.4353 94° East 476 548 45,000  Level FlightAware UK
02:28AM 51.8778 -8.3248 94° East 480 552 45,000  Level FlightAware UK
02:29AM 51.8725 -8.2126 94° East 482 555 45,000  Level FlightAware UK
02:29AM 51.8671 -8.1014 94° East 480 552 45,000  Level FlightAware UK
02:30AM 51.8623 -7.9905 94° East 478 550 45,000  Level FlightAware UK
02:30AM 51.8571 -7.8802 94° East 476 548 45,000  Level FlightAware UK
02:31AM 51.8516 -7.7702 95° East 480 552 45,000  Level FlightAware UK
02:31AM 51.8459 -7.6602 95° East 476 548 45,000  Level FlightAware UK
02:32AM 51.8400 -7.5503 95° East 480 552 45,000  Level FlightAware UK
02:32AM 51.8339 -7.4400 95° East 476 548 45,000  Level FlightAware UK
02:33AM 51.8279 -7.3295 95° East 476 548 45,000  Level FlightAware UK
02:33AM 51.8211 -7.2191 96° East 480 552 45,000  Level FlightAware UK
02:34AM 51.8150 -7.1084 95° East 478 550 45,000  Level FlightAware UK
02:34AM 51.8090 -6.9970 95° East 480 552 45,000  Level FlightAware UK
02:35AM 51.8027 -6.8868 95° East 478 550 45,000  Level FlightAware UK
02:35AM 51.7958 -6.7775 96° East 474 545 45,000  Level FlightAware UK
02:36AM 51.7885 -6.6688 96° East 474 545 45,000  Level FlightAware UK
02:36AM 51.7821 -6.5595 95° East 476 548 45,000  Level FlightAware UK
02:37AM 51.7761 -6.4495 95° East 478 550 45,000  Level FlightAware UK
02:37AM 51.7734 -6.3381 92° East 480 552 45,000  Level FlightAware UK
02:38AM 51.7688 -6.2270 94° East 484 557 45,000  Level FlightAware UK
02:38AM 51.7640 -6.1163 94° East 482 555 45,000  Level FlightAware UK
02:39AM 51.7592 -6.0076 94° East 468 539 45,000  Level FlightAware UK
02:39AM 51.7550 -5.9005 94° East 470 541 45,000  Level FlightAware UK
02:40AM 51.7500 -5.7914 94° East 476 548 45,000  Level FlightAware UK
02:40AM 51.7454 -5.6824 94° East 480 552 45,000  Level FlightAware UK
02:41AM 51.7394 -5.5491 94° East 484 557 45,000  Level FlightAware UK
02:41AM 51.7349 -5.4381 94° East 476 548 45,000  Level FlightAware UK
02:42AM 51.7299 -5.3288 94° East 474 545 45,000  Level FlightAware UK
02:44AM 51.7099 -4.8982 94° East 470 541 45,000  Level FlightAware UK
02:44AM 51.7048 -4.7902 94° East 476 548 45,000  Level FlightAware UK
02:45AM 51.6982 -4.6803 95° East 484 557 45,000  Level FlightAware UK
02:45AM 51.6929 -4.5714 94° East 480 552 45,000  Level FlightAware UK
02:46AM 51.6877 -4.4634 94° East 474 545 45,000  Level FlightAware UK
02:46AM 51.6821 -4.3567 95° East 472 543 45,000  Level FlightAware UK
02:47AM 51.6764 -4.2506 95° East 474 545 45,000  Level FlightAware UK
02:47AM 51.6696 -4.1220 95° East 476 548 45,000  Level FlightAware UK
02:48AM 51.6635 -4.0136 95° East 476 548 45,000  Level FlightAware UK
02:48AM 51.6574 -3.9057 95° East 474 545 45,000  Level FlightAware UK
02:49AM 51.6511 -3.7975 95° East 478 550 45,000  Level FlightAware UK
02:49AM 51.6448 -3.6890 95° East 478 550 45,000  Level FlightAware UK
02:50AM 51.6385 -3.5799 95° East 480 552 45,000  Level FlightAware UK
02:50AM 51.6318 -3.4716 96° East 474 545 45,000  Level FlightAware UK
02:51AM 51.6252 -3.3634 96° East 478 550 45,000  Level FlightAware UK
02:51AM 51.6184 -3.2561 96° East 476 548 45,000  Level FlightAware UK
02:52AM 51.6103 -3.1273 96° East 474 545 45,000  Level FlightAware UK
02:53AM 51.6034 -3.0190 96° East 480 552 45,000  Level FlightAware UK
02:53AM 51.5963 -2.9112 96° East 478 550 45,000  Level FlightAware UK
02:54AM 51.5893 -2.8032 96° East 476 548 45,000  Level FlightAware UK
02:54AM 51.5820 -2.6952 96° East 474 545 45,000  Level FlightAware UK
02:55AM 51.5669 -2.4766 96° East 482 555 45,000  Level FlightAware UK
02:56AM 51.5593 -2.3669 96° East 486 559 45,000  Level FlightAware UK
02:56AM 51.5485 -2.2144 96° East 482 555 45,000  Level FlightAware UK
02:57AM 51.5393 -2.0876 97° East 476 548 45,000  Level FlightAware UK
02:57AM 51.5316 -1.9827 97° East 472 543 45,000  Level FlightAware UK
02:58AM 51.5191 -1.8140 97° East 478 550 45,000  Level FlightAware UK
02:59AM 51.5094 -1.6860 97° East 478 550 45,000  Level FlightAware UK
02:59AM 51.5011 -1.5790 97° East 482 555 45,000  Level FlightAware UK
03:00AM 51.4928 -1.4725 97° East 476 548 45,000  Level FlightAware UK
03:00AM 51.4810 -1.3233 97° East 476 548 45,000  Level FlightAware UK
03:01AM 51.4727 -1.2173 97° East 476 548 45,000  Level FlightAware UK
03:01AM 51.4640 -1.1107 97° East 474 545 45,000  Level FlightAware UK
03:02AM 51.4552 -1.0036 97° East 474 545 45,000  Level FlightAware UK
03:03AM 51.4428 -0.8530 97° East 478 550 45,000 -120 Level FlightAware UK
03:03AM 51.4336 -0.7448 98° East 478 550 44,900  Descending FlightAware UK
03:04AM 51.4246 -0.6372 98° East 476 548 45,000 60 Climbing FlightAware UK
03:04AM 51.4155 -0.5307 98° East 476 548 45,000  Level FlightAware UK
03:05AM 51.4044 -0.4035 98° East 478 550 45,000  Level FlightAware UK
03:05AM 51.3911 -0.2537 98° East 478 550 45,000  Level FlightAware UK
03:06AM 51.3816 -0.1462 98° East 480 552 45,000  Level FlightAware UK
03:07AM 51.3717 -0.0384 98° East 478 550 45,000  Level FlightAware UK
03:07AM 51.3581 0.1105 98° East 480 552 45,000  Level FlightAware UK
03:08AM 51.3463 0.2385 98° East 478 550 45,000  Level FlightAware UK
03:08AM 51.3364 0.3449 98° East 482 555 45,000 -120 Level FlightAware UK
03:09AM 51.3242 0.4724 99° East 480 552 44,900  Descending FlightAware UK
03:09AM 51.3140 0.5790 99° East 478 550 45,000 60 Climbing FlightAware UK
03:10AM 51.2955 0.7691 99° East 480 552 45,000  Level FlightAware UK
03:11AM 51.2849 0.8773 99° East 484 557 45,000  Level FlightAware UK
03:12AM 51.2698 1.0275 99° East 484 557 45,000  Level FlightAware UK
03:12AM 51.2572 1.1534 99° East 482 555 45,000  Level FlightAware UK
03:13AM 51.2358 1.3626 99° East 476 548 45,000  Level FlightAware UK
03:14AM 51.2227 1.4886 99° East 478 550 45,000  Level FlightAware UK
03:15AM 51.2029 1.6773 99° East 486 559 45,000  Level FlightAware UK
03:15AM 51.1895 1.8030 100° East 478 550 45,000  Level FlightAware UK
03:16AM 51.1688 1.9676 101° East 474 545 45,000  Level FlightAware UK
03:17AM 51.1461 2.0657 110° East 474 545 45,000  Level FlightAware UK
03:17AM 51.1126 2.1794 115° Southeast 482 555 45,000  Level FlightAware UK
03:18AM 51.0623 2.3504 115° Southeast 480 552 45,000  Level FlightAware UK
03:19AM 51.0290 2.4641 115° Southeast 478 550 45,000  Level FlightAware UK
03:20AM 50.9738 2.6509 115° Southeast 482 555 45,000  Level FlightAware UK
03:20AM 50.9295 2.8002 115° Southeast 480 552 45,000  Level FlightAware UK
03:22AM 50.8518 3.0592 115° Southeast 480 552 45,000  Level FlightAware UK
03:22AM 50.8240 3.1517 115° Southeast 482 555 45,000  Level FlightAware UK
03:23AM 50.7904 3.2629 116° Southeast 480 552 45,000  Level FlightAware UK
03:24AM 50.7514 3.3915 116° Southeast 478 550 45,000  Level FlightAware UK
03:24AM 50.7178 3.5016 116° Southeast 478 550 45,000  Level FlightAware UK
03:26AM 50.6274 3.7956 116° Southeast 476 548 45,000  Level FlightAware UK
03:27AM 50.5767 3.9593 116° Southeast 478 550 45,000  Level FlightAware UK
03:27AM 50.5484 4.0504 116° Southeast 476 548 45,000  Level FlightAware UK
03:28AM 50.4853 4.2534 116° Southeast 480 552 45,000  Level FlightAware UK
03:30AM 50.3807 4.4521 130° Southeast  Level Estimated
03:37AM 49.7458 5.6260 130° Southeast  Level Estimated
03:38AM 49.6541 5.7912 131° Southeast  Level Estimated
03:39AM 49.5622 5.9558 131° Southeast  Level Estimated
03:40AM 49.4701 6.1197 131° Southeast  Level Estimated
03:41AM 49.3777 6.2830 131° Southeast  Level Estimated
03:42AM 49.2851 6.4457 131° Southeast  Level Estimated
03:43AM 49.1923 6.6078 131° Southeast  Level Estimated
03:44AM 49.0993 6.7693 131° Southeast  Level Estimated
03:45AM 49.0060 6.9302 131° Southeast  Level Estimated
03:46AM 48.9125 7.0905 132° Southeast  Level Estimated
03:47AM 48.8188 7.2502 132° Southeast  Level Estimated
03:48AM 48.7249 7.4093 132° Southeast  Level Estimated
03:49AM 48.6307 7.5678 132° Southeast  Level Estimated
03:50AM 48.5364 7.7257 132° Southeast  Level Estimated
03:51AM 48.4418 7.8830 132° Southeast  Level Estimated
03:52AM 48.3470 8.0398 132° Southeast  Level Estimated
03:53AM 48.2520 8.1959 132° Southeast  Level Estimated
03:54AM 48.1568 8.3515 133° Southeast  Level Estimated
03:55AM 48.0614 8.5065 133° Southeast  Level Estimated
03:56AM 47.9657 8.6609 133° Southeast  Level Estimated
03:57AM 47.8699 8.8147 133° Southeast  Level Estimated
03:58AM 47.7738 8.9680 133° Southeast  Level Estimated
03:59AM 47.6776 9.1207 133° Southeast  Level Estimated
04:00AM 47.5812 9.2729 133° Southeast  Level Estimated
04:01AM 47.4845 9.4245 133° Southeast  Level Estimated
04:02AM 47.3876 9.5755 133° Southeast  Level Estimated
04:03AM 47.2906 9.7260 134° Southeast  Level Estimated
04:04AM 47.1934 9.8759 134° Southeast  Level Estimated
04:05AM 47.0959 10.0253 134° Southeast  Level Estimated
04:06AM 46.9983 10.1741 134° Southeast  Level Estimated
04:07AM 46.9005 10.3224 134° Southeast  Level Estimated
04:08AM 46.8025 10.4702 134° Southeast  Level Estimated
04:09AM 46.7043 10.6174 134° Southeast  Level Estimated
04:10AM 46.6059 10.7640 134° Southeast  Level Estimated
04:11AM 46.5073 10.9102 134° Southeast  Level Estimated
04:12AM 46.4085 11.0558 135° Southeast  Level Estimated
04:13AM 46.3096 11.2009 135° Southeast  Level Estimated
04:14AM 46.2104 11.3454 135° Southeast  Level Estimated
04:15AM 46.1111 11.4895 135° Southeast  Level Estimated
04:16AM 46.0117 11.6330 135° Southeast  Level Estimated
04:17AM 45.9120 11.7760 135° Southeast  Level Estimated
04:18AM 45.8121 11.9185 135° Southeast  Level Estimated
04:19AM 45.7121 12.0605 135° Southeast  Level Estimated
04:20AM 45.6119 12.2020 135° Southeast  Level Estimated
04:21AM 45.5115 12.3429 135° Southeast  Level Estimated
04:22AM 45.5051 12.3519 136° Southeast  Level Estimated
04:23AM 45.5051 12.3519 46° Northeast  Level Estimated
04:24AM 45.5051 12.3519 46° Northeast  Level Estimated
04:25AM 45.5051 12.3519 46° Northeast  Level Estimated
04:26AM 45.5051 12.3519 46° Northeast  Level Estimated
04:27AM 45.5051 12.3519 46° Northeast  Level Estimated
04:28AM 45.5051 12.3519 46° Northeast  Level Estimated
04:29AM 45.5051 12.3519 46° Northeast  Level Estimated
04:30AM 45.5051 12.3519 46° Northeast  Level Estimated
04:31AM 45.5051 12.3519 46° Northeast  Level Estimated
04:32AM 45.5051 12.3519 46° Northeast  Level Estimated
04:33AM 45.5051 12.3519 46° Northeast  Level Estimated
04:34AM 45.5051 12.3519 46° Northeast  Level Estimated
04:35AM 45.5051 12.3519 46° Northeast  Level Estimated
04:36AM 45.5051 12.3519 46° Northeast  Level Estimated
04:37AM 45.5051 12.3519 46° Northeast  Level Estimated
04:38AM 45.5051 12.3519 46° Northeast  Level Estimated
04:39AM 45.5051 12.3519 46° Northeast  Level Estimated
04:40AM 45.5051 12.3519 46° Northeast  Level Estimated
04:41AM 45.5051 12.3519 46° Northeast  Level Estimated
04:42AM 45.5051 12.3519 46° Northeast  Level Estimated
04:43AM 45.5051 12.3519 46° Northeast  Level Estimated
04:44AM 45.5051 12.3519 46° Northeast  Level Estimated
04:45AM 45.5051 12.3519 46° Northeast  Level Estimated
04:46AM 45.5051 12.3519 46° Northeast  Level Estimated
04:47AM 45.5051 12.3519 46° Northeast  Level Estimated
04:48AM 45.5051 12.3519 46° Northeast  Level Estimated
04:49AM 45.5051 12.3519 46° Northeast  Level Estimated
04:50AM 45.5051 12.3519 46° Northeast  Level Estimated
04:51AM 45.5051 12.3519 46° Northeast  Level Estimated